sensor_id;sensor_type;location;lat;lon;timestamp;P1;durP1;ratioP1;P2;durP2;ratioP2
8219;SDS011;4151;51.110;7.020;2023-04-15T00:00:23;5.50;;;3.40;;
8219;SDS011;4151;51.110;7.020;2023-04-15T00:02:49;5.93;;;3.17;;
8219;SDS011;4151;51.110;7.020;2023-04-15T00:05:15;9.03;;;3.40;;
8219;SDS011;4151;51.110;7.020;2023-04-15T00:07:41;10.53;;;3.00;;
8219;SDS011;4151;51.110;7.020;2023-04-15T00:10:06;10.30;;;3.70;;
8219;SDS011;4151;51.110;7.020;2023-04-15T00:12:33;7.83;;;3.30;;
8219;SDS011;4151;51.110;7.020;2023-04-15T00:14:58;5.27;;;3.30;;
8219;SDS011;4151;51.110;7.020;2023-04-15T00:17:24;4.40;;;3.20;;
8219;SDS011;4151;51.110;7.020;2023-04-15T00:19:49;8.73;;;3.20;;
8219;SDS011;4151;51.110;7.020;2023-04-15T00:22:15;5.40;;;2.67;;
8219;SDS011;4151;51.110;7.020;2023-04-15T00:24:42;7.50;;;3.07;;
8219;SDS011;4151;51.110;7.020;2023-04-15T00:27:07;8.70;;;2.70;;
8219;SDS011;4151;51.110;7.020;2023-04-15T00:29:33;4.90;;;2.80;;
8219;SDS011;4151;51.110;7.020;2023-04-15T00:31:59;5.27;;;2.87;;
8219;SDS011;4151;51.110;7.020;2023-04-15T00:34:25;4.30;;;3.17;;
8219;SDS011;4151;51.110;7.020;2023-04-15T00:36:51;5.60;;;2.77;;
8219;SDS011;4151;51.110;7.020;2023-04-15T00:39:17;8.23;;;2.60;;
8219;SDS011;4151;51.110;7.020;2023-04-15T00:41:43;8.37;;;2.63;;
8219;SDS011;4151;51.110;7.020;2023-04-15T00:44:09;6.13;;;3.30;;
8219;SDS011;4151;51.110;7.020;2023-04-15T00:46:35;5.80;;;2.60;;
8219;SDS011;4151;51.110;7.020;2023-04-15T00:49:05;6.90;;;3.13;;
8219;SDS011;4151;51.110;7.020;2023-04-15T00:51:31;5.90;;;3.13;;
8219;SDS011;4151;51.110;7.020;2023-04-15T00:54:00;4.90;;;3.20;;
8219;SDS011;4151;51.110;7.020;2023-04-15T00:56:30;7.20;;;3.53;;
8219;SDS011;4151;51.110;7.020;2023-04-15T00:58:58;4.47;;;2.80;;
8219;SDS011;4151;51.110;7.020;2023-04-15T01:01:24;10.40;;;3.80;;
8219;SDS011;4151;51.110;7.020;2023-04-15T01:03:50;5.83;;;3.20;;
8219;SDS011;4151;51.110;7.020;2023-04-15T01:06:16;3.93;;;2.77;;
8219;SDS011;4151;51.110;7.020;2023-04-15T01:08:43;8.27;;;3.03;;
8219;SDS011;4151;51.110;7.020;2023-04-15T01:11:09;5.80;;;3.40;;
8219;SDS011;4151;51.110;7.020;2023-04-15T01:13:37;10.50;;;3.60;;
8219;SDS011;4151;51.110;7.020;2023-04-15T01:16:03;7.50;;;3.50;;
8219;SDS011;4151;51.110;7.020;2023-04-15T01:18:29;10.17;;;3.80;;
8219;SDS011;4151;51.110;7.020;2023-04-15T01:20:55;6.83;;;3.83;;
8219;SDS011;4151;51.110;7.020;2023-04-15T01:23:21;8.33;;;3.13;;
8219;SDS011;4151;51.110;7.020;2023-04-15T01:25:47;9.83;;;2.90;;
8219;SDS011;4151;51.110;7.020;2023-04-15T01:28:14;7.60;;;3.20;;
8219;SDS011;4151;51.110;7.020;2023-04-15T01:30:40;5.80;;;3.33;;
8219;SDS011;4151;51.110;7.020;2023-04-15T01:33:05;5.20;;;3.23;;
8219;SDS011;4151;51.110;7.020;2023-04-15T01:35:31;13.20;;;4.03;;
8219;SDS011;4151;51.110;7.020;2023-04-15T01:38:00;12.63;;;3.43;;
8219;SDS011;4151;51.110;7.020;2023-04-15T01:40:30;4.90;;;4.07;;
8219;SDS011;4151;51.110;7.020;2023-04-15T01:42:55;7.77;;;4.07;;
8219;SDS011;4151;51.110;7.020;2023-04-15T01:45:21;7.80;;;4.10;;
8219;SDS011;4151;51.110;7.020;2023-04-15T01:47:47;6.63;;;3.43;;
8219;SDS011;4151;51.110;7.020;2023-04-15T01:50:13;8.23;;;3.77;;
8219;SDS011;4151;51.110;7.020;2023-04-15T01:52:39;4.40;;;3.40;;
8219;SDS011;4151;51.110;7.020;2023-04-15T01:55:05;8.87;;;3.23;;
8219;SDS011;4151;51.110;7.020;2023-04-15T01:57:32;11.40;;;3.20;;
8219;SDS011;4151;51.110;7.020;2023-04-15T01:59:58;9.00;;;3.47;;
8219;SDS011;4151;51.110;7.020;2023-04-15T02:02:23;5.00;;;3.10;;
8219;SDS011;4151;51.110;7.020;2023-04-15T02:04:49;8.40;;;3.43;;
8219;SDS011;4151;51.110;7.020;2023-04-15T02:07:15;4.90;;;2.90;;
8219;SDS011;4151;51.110;7.020;2023-04-15T02:09:41;6.23;;;3.20;;
8219;SDS011;4151;51.110;7.020;2023-04-15T02:12:07;7.03;;;3.03;;
8219;SDS011;4151;51.110;7.020;2023-04-15T02:14:33;12.63;;;3.43;;
8219;SDS011;4151;51.110;7.020;2023-04-15T02:16:59;5.53;;;3.30;;
8219;SDS011;4151;51.110;7.020;2023-04-15T02:19:31;11.50;;;3.53;;
8219;SDS011;4151;51.110;7.020;2023-04-15T02:21:59;21.50;;;4.00;;
8219;SDS011;4151;51.110;7.020;2023-04-15T02:24:29;10.27;;;3.20;;
8219;SDS011;4151;51.110;7.020;2023-04-15T02:26:55;5.13;;;3.23;;
8219;SDS011;4151;51.110;7.020;2023-04-15T02:29:21;6.80;;;3.40;;
8219;SDS011;4151;51.110;7.020;2023-04-15T02:31:47;8.90;;;3.53;;
8219;SDS011;4151;51.110;7.020;2023-04-15T02:34:13;4.43;;;3.80;;
8219;SDS011;4151;51.110;7.020;2023-04-15T02:36:39;8.50;;;3.87;;
8219;SDS011;4151;51.110;7.020;2023-04-15T02:39:05;6.30;;;3.50;;
8219;SDS011;4151;51.110;7.020;2023-04-15T02:41:30;4.97;;;3.10;;
8219;SDS011;4151;51.110;7.020;2023-04-15T02:43:56;5.57;;;3.53;;
8219;SDS011;4151;51.110;7.020;2023-04-15T02:46:21;7.03;;;3.13;;
8219;SDS011;4151;51.110;7.020;2023-04-15T02:48:48;9.03;;;3.30;;
8219;SDS011;4151;51.110;7.020;2023-04-15T02:51:14;8.60;;;3.90;;
8219;SDS011;4151;51.110;7.020;2023-04-15T02:53:40;6.03;;;3.40;;
8219;SDS011;4151;51.110;7.020;2023-04-15T02:56:06;8.03;;;3.57;;
8219;SDS011;4151;51.110;7.020;2023-04-15T02:58:32;5.50;;;3.53;;
8219;SDS011;4151;51.110;7.020;2023-04-15T03:00:59;6.60;;;3.53;;
8219;SDS011;4151;51.110;7.020;2023-04-15T03:03:24;7.43;;;3.97;;
8219;SDS011;4151;51.110;7.020;2023-04-15T03:05:51;6.47;;;4.00;;
8219;SDS011;4151;51.110;7.020;2023-04-15T03:08:17;17.33;;;4.20;;
8219;SDS011;4151;51.110;7.020;2023-04-15T03:10:43;10.50;;;3.73;;
8219;SDS011;4151;51.110;7.020;2023-04-15T03:13:08;6.67;;;3.77;;
8219;SDS011;4151;51.110;7.020;2023-04-15T03:15:34;6.97;;;3.77;;
8219;SDS011;4151;51.110;7.020;2023-04-15T03:18:00;6.43;;;3.60;;
8219;SDS011;4151;51.110;7.020;2023-04-15T03:20:25;9.00;;;4.20;;
8219;SDS011;4151;51.110;7.020;2023-04-15T03:22:51;7.70;;;3.60;;
8219;SDS011;4151;51.110;7.020;2023-04-15T03:25:17;10.50;;;4.70;;
8219;SDS011;4151;51.110;7.020;2023-04-15T03:27:42;13.30;;;3.90;;
8219;SDS011;4151;51.110;7.020;2023-04-15T03:30:08;9.13;;;3.90;;
8219;SDS011;4151;51.110;7.020;2023-04-15T03:32:34;7.37;;;4.20;;
8219;SDS011;4151;51.110;7.020;2023-04-15T03:34:59;8.20;;;4.00;;
8219;SDS011;4151;51.110;7.020;2023-04-15T03:37:25;6.63;;;4.07;;
8219;SDS011;4151;51.110;7.020;2023-04-15T03:39:51;9.83;;;4.13;;
8219;SDS011;4151;51.110;7.020;2023-04-15T03:42:17;5.83;;;3.67;;
8219;SDS011;4151;51.110;7.020;2023-04-15T03:44:42;18.07;;;7.07;;
8219;SDS011;4151;51.110;7.020;2023-04-15T03:47:08;14.60;;;6.27;;
8219;SDS011;4151;51.110;7.020;2023-04-15T03:49:33;17.90;;;9.10;;
8219;SDS011;4151;51.110;7.020;2023-04-15T03:52:00;5.87;;;3.60;;
8219;SDS011;4151;51.110;7.020;2023-04-15T03:54:25;7.17;;;3.47;;
8219;SDS011;4151;51.110;7.020;2023-04-15T03:56:51;10.27;;;3.63;;
8219;SDS011;4151;51.110;7.020;2023-04-15T03:59:16;7.20;;;3.73;;
8219;SDS011;4151;51.110;7.020;2023-04-15T04:01:42;5.87;;;3.60;;
8219;SDS011;4151;51.110;7.020;2023-04-15T04:04:07;6.03;;;3.50;;
8219;SDS011;4151;51.110;7.020;2023-04-15T04:06:33;6.17;;;4.10;;
8219;SDS011;4151;51.110;7.020;2023-04-15T04:08:58;9.20;;;4.40;;
8219;SDS011;4151;51.110;7.020;2023-04-15T04:11:25;9.90;;;4.93;;
8219;SDS011;4151;51.110;7.020;2023-04-15T04:13:52;6.73;;;4.73;;
8219;SDS011;4151;51.110;7.020;2023-04-15T04:16:17;9.83;;;4.87;;
8219;SDS011;4151;51.110;7.020;2023-04-15T04:18:43;7.57;;;4.60;;
8219;SDS011;4151;51.110;7.020;2023-04-15T04:21:09;12.10;;;3.73;;
8219;SDS011;4151;51.110;7.020;2023-04-15T04:23:35;6.70;;;3.90;;
8219;SDS011;4151;51.110;7.020;2023-04-15T04:26:01;10.87;;;5.17;;
8219;SDS011;4151;51.110;7.020;2023-04-15T04:28:26;8.47;;;3.93;;
8219;SDS011;4151;51.110;7.020;2023-04-15T04:30:52;8.00;;;4.20;;
8219;SDS011;4151;51.110;7.020;2023-04-15T04:33:17;12.30;;;4.07;;
8219;SDS011;4151;51.110;7.020;2023-04-15T04:35:43;8.30;;;4.87;;
8219;SDS011;4151;51.110;7.020;2023-04-15T04:38:09;10.80;;;4.17;;
8219;SDS011;4151;51.110;7.020;2023-04-15T04:40:35;10.20;;;4.50;;
8219;SDS011;4151;51.110;7.020;2023-04-15T04:43:00;7.70;;;4.00;;
8219;SDS011;4151;51.110;7.020;2023-04-15T04:45:26;9.43;;;4.30;;
8219;SDS011;4151;51.110;7.020;2023-04-15T04:47:52;5.90;;;3.97;;
8219;SDS011;4151;51.110;7.020;2023-04-15T04:50:17;5.63;;;4.20;;
8219;SDS011;4151;51.110;7.020;2023-04-15T04:52:43;6.10;;;4.17;;
8219;SDS011;4151;51.110;7.020;2023-04-15T04:55:08;12.23;;;4.50;;
8219;SDS011;4151;51.110;7.020;2023-04-15T04:57:34;7.30;;;4.63;;
8219;SDS011;4151;51.110;7.020;2023-04-15T05:00:00;11.13;;;4.30;;
8219;SDS011;4151;51.110;7.020;2023-04-15T05:02:28;7.33;;;4.47;;
8219;SDS011;4151;51.110;7.020;2023-04-15T05:04:54;9.37;;;4.40;;
8219;SDS011;4151;51.110;7.020;2023-04-15T05:07:19;18.80;;;6.67;;
8219;SDS011;4151;51.110;7.020;2023-04-15T05:09:45;8.53;;;5.00;;
8219;SDS011;4151;51.110;7.020;2023-04-15T05:12:11;9.23;;;4.77;;
8219;SDS011;4151;51.110;7.020;2023-04-15T05:14:40;9.13;;;5.17;;
8219;SDS011;4151;51.110;7.020;2023-04-15T05:17:06;8.57;;;4.73;;
8219;SDS011;4151;51.110;7.020;2023-04-15T05:19:32;6.80;;;4.50;;
8219;SDS011;4151;51.110;7.020;2023-04-15T05:21:57;10.57;;;3.63;;
8219;SDS011;4151;51.110;7.020;2023-04-15T05:24:24;9.00;;;4.73;;
8219;SDS011;4151;51.110;7.020;2023-04-15T05:26:49;8.13;;;4.40;;
8219;SDS011;4151;51.110;7.020;2023-04-15T05:29:15;8.80;;;4.60;;
8219;SDS011;4151;51.110;7.020;2023-04-15T05:31:40;7.33;;;4.70;;
8219;SDS011;4151;51.110;7.020;2023-04-15T05:34:07;7.53;;;4.20;;
8219;SDS011;4151;51.110;7.020;2023-04-15T05:36:32;6.50;;;4.17;;
8219;SDS011;4151;51.110;7.020;2023-04-15T05:38:58;8.97;;;4.13;;
8219;SDS011;4151;51.110;7.020;2023-04-15T05:41:24;9.93;;;5.30;;
8219;SDS011;4151;51.110;7.020;2023-04-15T05:43:50;8.33;;;4.17;;
8219;SDS011;4151;51.110;7.020;2023-04-15T05:46:15;11.57;;;5.33;;
8219;SDS011;4151;51.110;7.020;2023-04-15T05:48:41;9.53;;;4.97;;
8219;SDS011;4151;51.110;7.020;2023-04-15T05:51:06;10.70;;;4.47;;
8219;SDS011;4151;51.110;7.020;2023-04-15T05:53:32;7.67;;;4.83;;
8219;SDS011;4151;51.110;7.020;2023-04-15T05:55:57;11.43;;;5.27;;
8219;SDS011;4151;51.110;7.020;2023-04-15T05:58:23;9.30;;;5.00;;
8219;SDS011;4151;51.110;7.020;2023-04-15T06:00:49;10.20;;;4.90;;
8219;SDS011;4151;51.110;7.020;2023-04-15T06:03:15;10.53;;;5.00;;
8219;SDS011;4151;51.110;7.020;2023-04-15T06:05:40;8.93;;;4.47;;
8219;SDS011;4151;51.110;7.020;2023-04-15T06:08:06;8.90;;;4.30;;
8219;SDS011;4151;51.110;7.020;2023-04-15T06:10:32;8.37;;;3.80;;
8219;SDS011;4151;51.110;7.020;2023-04-15T06:13:00;7.53;;;4.40;;
8219;SDS011;4151;51.110;7.020;2023-04-15T06:15:27;10.57;;;4.40;;
8219;SDS011;4151;51.110;7.020;2023-04-15T06:17:53;10.30;;;4.70;;
8219;SDS011;4151;51.110;7.020;2023-04-15T06:20:19;10.90;;;5.20;;
8219;SDS011;4151;51.110;7.020;2023-04-15T06:22:44;10.93;;;5.50;;
8219;SDS011;4151;51.110;7.020;2023-04-15T06:25:10;13.77;;;8.27;;
8219;SDS011;4151;51.110;7.020;2023-04-15T06:27:35;12.67;;;7.07;;
8219;SDS011;4151;51.110;7.020;2023-04-15T06:30:01;13.60;;;7.53;;
8219;SDS011;4151;51.110;7.020;2023-04-15T06:32:28;17.40;;;8.40;;
8219;SDS011;4151;51.110;7.020;2023-04-15T06:34:53;15.40;;;8.03;;
8219;SDS011;4151;51.110;7.020;2023-04-15T06:37:19;12.33;;;8.17;;
8219;SDS011;4151;51.110;7.020;2023-04-15T06:39:45;11.30;;;6.70;;
8219;SDS011;4151;51.110;7.020;2023-04-15T06:42:11;12.23;;;7.20;;
8219;SDS011;4151;51.110;7.020;2023-04-15T06:44:36;13.87;;;7.07;;
8219;SDS011;4151;51.110;7.020;2023-04-15T06:47:02;12.77;;;7.00;;
8219;SDS011;4151;51.110;7.020;2023-04-15T06:49:28;14.30;;;6.23;;
8219;SDS011;4151;51.110;7.020;2023-04-15T06:51:53;12.40;;;6.40;;
8219;SDS011;4151;51.110;7.020;2023-04-15T06:54:19;10.50;;;6.00;;
8219;SDS011;4151;51.110;7.020;2023-04-15T06:56:45;13.23;;;6.27;;
8219;SDS011;4151;51.110;7.020;2023-04-15T06:59:11;8.27;;;5.67;;
8219;SDS011;4151;51.110;7.020;2023-04-15T07:01:38;7.00;;;4.97;;
8219;SDS011;4151;51.110;7.020;2023-04-15T07:04:05;7.97;;;4.90;;
8219;SDS011;4151;51.110;7.020;2023-04-15T07:06:30;12.47;;;5.43;;
8219;SDS011;4151;51.110;7.020;2023-04-15T07:08:56;6.70;;;5.07;;
8219;SDS011;4151;51.110;7.020;2023-04-15T07:11:22;8.10;;;4.27;;
8219;SDS011;4151;51.110;7.020;2023-04-15T07:13:49;13.70;;;4.40;;
8219;SDS011;4151;51.110;7.020;2023-04-15T07:16:15;7.57;;;5.17;;
8219;SDS011;4151;51.110;7.020;2023-04-15T07:18:41;5.60;;;3.80;;
8219;SDS011;4151;51.110;7.020;2023-04-15T07:21:07;17.93;;;7.40;;
8219;SDS011;4151;51.110;7.020;2023-04-15T07:23:33;9.60;;;6.00;;
8219;SDS011;4151;51.110;7.020;2023-04-15T07:25:58;11.40;;;5.30;;
8219;SDS011;4151;51.110;7.020;2023-04-15T07:28:24;9.50;;;4.10;;
8219;SDS011;4151;51.110;7.020;2023-04-15T07:30:50;8.53;;;4.17;;
8219;SDS011;4151;51.110;7.020;2023-04-15T07:33:16;8.37;;;3.57;;
8219;SDS011;4151;51.110;7.020;2023-04-15T07:35:41;4.43;;;3.20;;
8219;SDS011;4151;51.110;7.020;2023-04-15T07:38:07;11.03;;;3.63;;
8219;SDS011;4151;51.110;7.020;2023-04-15T07:40:33;7.10;;;2.90;;
8219;SDS011;4151;51.110;7.020;2023-04-15T07:42:58;6.73;;;3.23;;
8219;SDS011;4151;51.110;7.020;2023-04-15T07:45:24;7.80;;;3.00;;
8219;SDS011;4151;51.110;7.020;2023-04-15T07:47:49;6.03;;;2.80;;
8219;SDS011;4151;51.110;7.020;2023-04-15T07:50:15;5.57;;;3.07;;
8219;SDS011;4151;51.110;7.020;2023-04-15T07:52:41;4.43;;;3.37;;
8219;SDS011;4151;51.110;7.020;2023-04-15T07:55:08;6.40;;;3.37;;
8219;SDS011;4151;51.110;7.020;2023-04-15T07:57:35;7.57;;;3.80;;
8219;SDS011;4151;51.110;7.020;2023-04-15T08:00:02;7.17;;;3.50;;
8219;SDS011;4151;51.110;7.020;2023-04-15T08:02:31;5.23;;;3.77;;
8219;SDS011;4151;51.110;7.020;2023-04-15T08:04:57;7.30;;;4.30;;
8219;SDS011;4151;51.110;7.020;2023-04-15T08:07:23;5.77;;;3.20;;
8219;SDS011;4151;51.110;7.020;2023-04-15T08:09:49;4.00;;;3.00;;
8219;SDS011;4151;51.110;7.020;2023-04-15T08:12:15;5.67;;;3.90;;
8219;SDS011;4151;51.110;7.020;2023-04-15T14:33:33;8.87;;;3.93;;
8219;SDS011;4151;51.110;7.020;2023-04-15T14:35:58;5.80;;;3.50;;
8219;SDS011;4151;51.110;7.020;2023-04-15T14:38:24;5.53;;;3.77;;
8219;SDS011;4151;51.110;7.020;2023-04-15T14:40:49;6.80;;;3.70;;
8219;SDS011;4151;51.110;7.020;2023-04-15T14:43:15;6.50;;;3.47;;
8219;SDS011;4151;51.110;7.020;2023-04-15T14:45:41;12.23;;;4.10;;
8219;SDS011;4151;51.110;7.020;2023-04-15T14:48:08;6.30;;;3.30;;
8219;SDS011;4151;51.110;7.020;2023-04-15T14:50:34;5.57;;;3.80;;
8219;SDS011;4151;51.110;7.020;2023-04-15T14:53:00;5.70;;;3.30;;
8219;SDS011;4151;51.110;7.020;2023-04-15T14:55:26;4.73;;;3.10;;
8219;SDS011;4151;51.110;7.020;2023-04-15T14:57:51;4.67;;;3.00;;
8219;SDS011;4151;51.110;7.020;2023-04-15T15:00:17;6.67;;;3.80;;
8219;SDS011;4151;51.110;7.020;2023-04-15T15:02:43;4.40;;;2.80;;
8219;SDS011;4151;51.110;7.020;2023-04-15T15:05:09;5.00;;;3.60;;
8219;SDS011;4151;51.110;7.020;2023-04-15T15:07:36;12.50;;;3.47;;
8219;SDS011;4151;51.110;7.020;2023-04-15T15:10:02;4.83;;;3.10;;
8219;SDS011;4151;51.110;7.020;2023-04-15T15:12:28;6.33;;;3.80;;
8219;SDS011;4151;51.110;7.020;2023-04-15T15:14:53;6.03;;;3.90;;
8219;SDS011;4151;51.110;7.020;2023-04-15T15:17:20;6.23;;;3.60;;
8219;SDS011;4151;51.110;7.020;2023-04-15T15:19:45;10.53;;;4.30;;
8219;SDS011;4151;51.110;7.020;2023-04-15T15:22:11;6.17;;;3.93;;
8219;SDS011;4151;51.110;7.020;2023-04-15T15:24:37;5.80;;;4.00;;
8219;SDS011;4151;51.110;7.020;2023-04-15T15:27:02;12.97;;;4.17;;
8219;SDS011;4151;51.110;7.020;2023-04-15T15:29:28;5.13;;;3.70;;
8219;SDS011;4151;51.110;7.020;2023-04-15T15:31:53;6.67;;;3.53;;
8219;SDS011;4151;51.110;7.020;2023-04-15T15:34:19;9.97;;;3.83;;
8219;SDS011;4151;51.110;7.020;2023-04-15T15:36:45;7.50;;;4.20;;
8219;SDS011;4151;51.110;7.020;2023-04-15T15:39:10;6.70;;;4.30;;
8219;SDS011;4151;51.110;7.020;2023-04-15T15:41:36;6.27;;;4.30;;
8219;SDS011;4151;51.110;7.020;2023-04-15T15:44:01;7.80;;;4.70;;
8219;SDS011;4151;51.110;7.020;2023-04-15T15:46:27;6.50;;;3.37;;
8219;SDS011;4151;51.110;7.020;2023-04-15T15:48:55;38.93;;;22.60;;
8219;SDS011;4151;51.110;7.020;2023-04-15T15:51:21;24.13;;;13.37;;
8219;SDS011;4151;51.110;7.020;2023-04-15T15:53:46;6.53;;;4.40;;
8219;SDS011;4151;51.110;7.020;2023-04-15T15:56:12;7.40;;;3.47;;
8219;SDS011;4151;51.110;7.020;2023-04-15T15:58:37;7.70;;;3.30;;
8219;SDS011;4151;51.110;7.020;2023-04-15T16:01:03;6.83;;;3.70;;
8219;SDS011;4151;51.110;7.020;2023-04-15T16:03:29;4.47;;;3.10;;
8219;SDS011;4151;51.110;7.020;2023-04-15T16:05:55;8.00;;;3.67;;
8219;SDS011;4151;51.110;7.020;2023-04-15T16:08:20;5.77;;;3.73;;
8219;SDS011;4151;51.110;7.020;2023-04-15T16:10:46;5.50;;;3.60;;
8219;SDS011;4151;51.110;7.020;2023-04-15T16:13:12;5.20;;;3.83;;
8219;SDS011;4151;51.110;7.020;2023-04-15T16:15:37;8.40;;;3.60;;
8219;SDS011;4151;51.110;7.020;2023-04-15T16:18:03;6.73;;;3.47;;
8219;SDS011;4151;51.110;7.020;2023-04-15T16:20:29;3.80;;;3.23;;
8219;SDS011;4151;51.110;7.020;2023-04-15T16:22:55;6.80;;;3.93;;
8219;SDS011;4151;51.110;7.020;2023-04-15T16:25:22;4.53;;;3.60;;
8219;SDS011;4151;51.110;7.020;2023-04-15T16:27:48;5.83;;;3.13;;
8219;SDS011;4151;51.110;7.020;2023-04-15T16:30:13;4.50;;;3.47;;
8219;SDS011;4151;51.110;7.020;2023-04-15T16:32:39;4.27;;;3.10;;
8219;SDS011;4151;51.110;7.020;2023-04-15T16:35:05;10.30;;;4.40;;
8219;SDS011;4151;51.110;7.020;2023-04-15T16:37:31;6.03;;;3.03;;
8219;SDS011;4151;51.110;7.020;2023-04-15T16:39:58;3.63;;;2.50;;
8219;SDS011;4151;51.110;7.020;2023-04-15T16:42:24;4.60;;;3.07;;
8219;SDS011;4151;51.110;7.020;2023-04-15T16:44:50;6.40;;;3.00;;
8219;SDS011;4151;51.110;7.020;2023-04-15T16:47:15;8.00;;;2.90;;
8219;SDS011;4151;51.110;7.020;2023-04-15T16:49:41;3.93;;;3.00;;
8219;SDS011;4151;51.110;7.020;2023-04-15T16:52:06;4.80;;;3.23;;
8219;SDS011;4151;51.110;7.020;2023-04-15T16:54:32;8.17;;;3.90;;
8219;SDS011;4151;51.110;7.020;2023-04-15T16:56:59;6.03;;;3.50;;
8219;SDS011;4151;51.110;7.020;2023-04-15T16:59:26;4.20;;;3.00;;
8219;SDS011;4151;51.110;7.020;2023-04-15T17:01:55;4.57;;;3.57;;
8219;SDS011;4151;51.110;7.020;2023-04-15T17:04:20;6.40;;;3.50;;
8219;SDS011;4151;51.110;7.020;2023-04-15T17:06:46;5.80;;;3.50;;
8219;SDS011;4151;51.110;7.020;2023-04-15T17:09:12;4.83;;;3.43;;
8219;SDS011;4151;51.110;7.020;2023-04-15T17:11:37;5.20;;;3.77;;
8219;SDS011;4151;51.110;7.020;2023-04-15T17:14:05;6.23;;;3.47;;
8219;SDS011;4151;51.110;7.020;2023-04-15T17:16:31;4.10;;;3.47;;
8219;SDS011;4151;51.110;7.020;2023-04-15T17:18:57;4.57;;;2.87;;
8219;SDS011;4151;51.110;7.020;2023-04-15T17:21:22;4.27;;;2.80;;
8219;SDS011;4151;51.110;7.020;2023-04-15T17:23:49;6.87;;;3.20;;
8219;SDS011;4151;51.110;7.020;2023-04-15T17:26:16;4.07;;;2.90;;
8219;SDS011;4151;51.110;7.020;2023-04-15T17:28:42;8.03;;;4.20;;
8219;SDS011;4151;51.110;7.020;2023-04-15T17:31:07;6.83;;;3.70;;
8219;SDS011;4151;51.110;7.020;2023-04-15T17:33:33;10.80;;;6.00;;
8219;SDS011;4151;51.110;7.020;2023-04-15T17:35:59;8.43;;;3.60;;
8219;SDS011;4151;51.110;7.020;2023-04-15T17:38:25;7.70;;;4.20;;
8219;SDS011;4151;51.110;7.020;2023-04-15T17:40:50;7.27;;;4.00;;
8219;SDS011;4151;51.110;7.020;2023-04-15T17:43:16;17.03;;;5.00;;
8219;SDS011;4151;51.110;7.020;2023-04-15T17:45:41;6.50;;;4.43;;
8219;SDS011;4151;51.110;7.020;2023-04-15T17:48:07;8.83;;;4.80;;
8219;SDS011;4151;51.110;7.020;2023-04-15T17:50:33;13.43;;;5.80;;
8219;SDS011;4151;51.110;7.020;2023-04-15T17:52:58;7.90;;;5.20;;
8219;SDS011;4151;51.110;7.020;2023-04-15T17:55:24;9.47;;;5.33;;
8219;SDS011;4151;51.110;7.020;2023-04-15T17:57:50;9.83;;;6.20;;
8219;SDS011;4151;51.110;7.020;2023-04-15T18:00:15;13.03;;;5.97;;
8219;SDS011;4151;51.110;7.020;2023-04-15T18:02:41;8.83;;;5.50;;
8219;SDS011;4151;51.110;7.020;2023-04-15T18:05:07;12.27;;;7.30;;
8219;SDS011;4151;51.110;7.020;2023-04-15T18:07:33;13.23;;;8.27;;
8219;SDS011;4151;51.110;7.020;2023-04-15T18:09:59;15.17;;;7.27;;
8219;SDS011;4151;51.110;7.020;2023-04-15T18:24:14;14.27;;;10.03;;
8219;SDS011;4151;51.110;7.020;2023-04-15T18:26:40;19.33;;;10.30;;
8219;SDS011;4151;51.110;7.020;2023-04-15T18:29:05;26.60;;;11.40;;
8219;SDS011;4151;51.110;7.020;2023-04-15T18:31:31;15.63;;;10.87;;
8219;SDS011;4151;51.110;7.020;2023-04-15T18:33:57;14.53;;;10.17;;
8219;SDS011;4151;51.110;7.020;2023-04-15T18:36:22;18.67;;;10.33;;
8219;SDS011;4151;51.110;7.020;2023-04-15T18:38:48;25.17;;;10.70;;
8219;SDS011;4151;51.110;7.020;2023-04-15T18:41:13;29.40;;;11.70;;
8219;SDS011;4151;51.110;7.020;2023-04-15T18:43:39;24.03;;;12.10;;
8219;SDS011;4151;51.110;7.020;2023-04-15T18:46:05;23.63;;;13.90;;
8219;SDS011;4151;51.110;7.020;2023-04-15T18:48:35;30.37;;;14.80;;
8219;SDS011;4151;51.110;7.020;2023-04-15T18:51:01;25.23;;;13.97;;
8219;SDS011;4151;51.110;7.020;2023-04-15T18:53:26;23.43;;;12.70;;
8219;SDS011;4151;51.110;7.020;2023-04-15T18:55:52;19.27;;;11.80;;
8219;SDS011;4151;51.110;7.020;2023-04-15T18:58:20;23.20;;;12.07;;
8219;SDS011;4151;51.110;7.020;2023-04-15T19:00:45;21.80;;;13.20;;
8219;SDS011;4151;51.110;7.020;2023-04-15T19:03:11;23.77;;;14.50;;
8219;SDS011;4151;51.110;7.020;2023-04-15T19:05:37;41.67;;;20.53;;
8219;SDS011;4151;51.110;7.020;2023-04-15T19:08:02;28.43;;;15.00;;
8219;SDS011;4151;51.110;7.020;2023-04-15T19:10:28;22.10;;;14.10;;
8219;SDS011;4151;51.110;7.020;2023-04-15T19:12:54;25.40;;;13.30;;
8219;SDS011;4151;51.110;7.020;2023-04-15T19:15:19;25.60;;;14.10;;
8219;SDS011;4151;51.110;7.020;2023-04-15T19:17:45;21.50;;;12.80;;
8219;SDS011;4151;51.110;7.020;2023-04-15T19:20:10;26.23;;;12.10;;
8219;SDS011;4151;51.110;7.020;2023-04-15T19:22:36;23.33;;;12.00;;
8219;SDS011;4151;51.110;7.020;2023-04-15T19:25:02;31.13;;;13.20;;
8219;SDS011;4151;51.110;7.020;2023-04-15T19:27:29;21.90;;;12.47;;
8219;SDS011;4151;51.110;7.020;2023-04-15T19:29:54;25.43;;;13.40;;
8219;SDS011;4151;51.110;7.020;2023-04-15T19:32:20;20.30;;;11.17;;
8219;SDS011;4151;51.110;7.020;2023-04-15T19:34:46;18.47;;;11.10;;
8219;SDS011;4151;51.110;7.020;2023-04-15T19:37:12;18.00;;;10.63;;
8219;SDS011;4151;51.110;7.020;2023-04-15T19:39:38;17.43;;;10.30;;
8219;SDS011;4151;51.110;7.020;2023-04-15T19:42:04;23.73;;;11.70;;
8219;SDS011;4151;51.110;7.020;2023-04-15T19:44:30;26.67;;;10.80;;
8219;SDS011;4151;51.110;7.020;2023-04-15T19:46:55;21.23;;;12.47;;
8219;SDS011;4151;51.110;7.020;2023-04-15T19:49:21;21.00;;;11.87;;
8219;SDS011;4151;51.110;7.020;2023-04-15T19:51:47;30.33;;;12.63;;
8219;SDS011;4151;51.110;7.020;2023-04-15T19:54:14;25.13;;;13.87;;
8219;SDS011;4151;51.110;7.020;2023-04-15T19:56:39;23.80;;;12.67;;
8219;SDS011;4151;51.110;7.020;2023-04-15T19:59:05;25.17;;;13.97;;
8219;SDS011;4151;51.110;7.020;2023-04-15T20:01:31;22.63;;;14.10;;
8219;SDS011;4151;51.110;7.020;2023-04-15T20:03:56;22.70;;;12.20;;
8219;SDS011;4151;51.110;7.020;2023-04-15T20:06:22;29.07;;;13.20;;
8219;SDS011;4151;51.110;7.020;2023-04-15T20:08:48;31.60;;;13.73;;
8219;SDS011;4151;51.110;7.020;2023-04-15T20:11:13;29.43;;;13.47;;
8219;SDS011;4151;51.110;7.020;2023-04-15T20:13:39;20.43;;;12.77;;
8219;SDS011;4151;51.110;7.020;2023-04-15T20:16:05;18.67;;;12.33;;
8219;SDS011;4151;51.110;7.020;2023-04-15T20:18:31;31.23;;;11.70;;
8219;SDS011;4151;51.110;7.020;2023-04-15T20:20:58;23.33;;;11.00;;
8219;SDS011;4151;51.110;7.020;2023-04-15T20:23:24;18.27;;;11.53;;
8219;SDS011;4151;51.110;7.020;2023-04-15T20:25:49;20.47;;;11.37;;
8219;SDS011;4151;51.110;7.020;2023-04-15T20:28:15;24.17;;;10.63;;
8219;SDS011;4151;51.110;7.020;2023-04-15T20:30:42;23.73;;;11.40;;
8219;SDS011;4151;51.110;7.020;2023-04-15T20:33:08;20.53;;;10.10;;
8219;SDS011;4151;51.110;7.020;2023-04-15T20:35:34;20.20;;;8.87;;
8219;SDS011;4151;51.110;7.020;2023-04-15T20:37:59;15.33;;;9.13;;
8219;SDS011;4151;51.110;7.020;2023-04-15T20:40:26;18.47;;;9.50;;
8219;SDS011;4151;51.110;7.020;2023-04-15T20:42:52;18.33;;;9.67;;
8219;SDS011;4151;51.110;7.020;2023-04-15T20:45:17;30.20;;;10.27;;
8219;SDS011;4151;51.110;7.020;2023-04-15T20:47:43;24.50;;;11.30;;
8219;SDS011;4151;51.110;7.020;2023-04-15T20:50:09;18.00;;;9.93;;
8219;SDS011;4151;51.110;7.020;2023-04-15T20:52:35;21.20;;;10.70;;
8219;SDS011;4151;51.110;7.020;2023-04-15T20:55:00;23.40;;;9.30;;
8219;SDS011;4151;51.110;7.020;2023-04-15T20:57:26;14.80;;;9.10;;
8219;SDS011;4151;51.110;7.020;2023-04-15T20:59:54;20.90;;;10.20;;
8219;SDS011;4151;51.110;7.020;2023-04-15T21:02:20;19.63;;;9.53;;
8219;SDS011;4151;51.110;7.020;2023-04-15T21:04:47;25.73;;;9.40;;
8219;SDS011;4151;51.110;7.020;2023-04-15T21:07:12;15.70;;;8.80;;
8219;SDS011;4151;51.110;7.020;2023-04-15T21:09:38;16.30;;;9.13;;
8219;SDS011;4151;51.110;7.020;2023-04-15T21:12:05;16.07;;;9.20;;
8219;SDS011;4151;51.110;7.020;2023-04-15T21:14:31;20.33;;;9.10;;
8219;SDS011;4151;51.110;7.020;2023-04-15T21:16:58;21.27;;;9.53;;
8219;SDS011;4151;51.110;7.020;2023-04-15T21:19:30;13.10;;;8.67;;
8219;SDS011;4151;51.110;7.020;2023-04-15T21:21:59;19.10;;;11.10;;
8219;SDS011;4151;51.110;7.020;2023-04-15T21:24:24;20.53;;;9.70;;
8219;SDS011;4151;51.110;7.020;2023-04-15T21:26:50;14.63;;;8.20;;
8219;SDS011;4151;51.110;7.020;2023-04-15T21:29:16;21.93;;;8.83;;